sensor_id;sensor_type;location;lat;lon;timestamp;temperature;humidity
15156;DHT22;7678;50.058;8.306;2023-03-31T00:00:51;10.30;99.90
15156;DHT22;7678;50.058;8.306;2023-03-31T00:03:20;10.20;99.90
15156;DHT22;7678;50.058;8.306;2023-03-31T00:05:54;10.20;99.90
15156;DHT22;7678;50.058;8.306;2023-03-31T00:08:24;10.10;99.90
15156;DHT22;7678;50.058;8.306;2023-03-31T00:10:58;10.00;99.90
15156;DHT22;7678;50.058;8.306;2023-03-31T00:13:29;10.10;99.90
15156;DHT22;7678;50.058;8.306;2023-03-31T00:15:59;10.10;99.90
15156;DHT22;7678;50.058;8.306;2023-03-31T00:18:27;9.90;99.90
15156;DHT22;7678;50.058;8.306;2023-03-31T00:21:05;9.90;99.90
15156;DHT22;7678;50.058;8.306;2023-03-31T00:23:34;9.80;99.90
15156;DHT22;7678;50.058;8.306;2023-03-31T00:26:04;9.80;99.90
15156;DHT22;7678;50.058;8.306;2023-03-31T00:28:35;9.70;99.90
15156;DHT22;7678;50.058;8.306;2023-03-31T00:31:03;9.70;99.90
15156;DHT22;7678;50.058;8.306;2023-03-31T00:33:32;9.70;99.90
15156;DHT22;7678;50.058;8.306;2023-03-31T00:36:00;9.70;99.90
15156;DHT22;7678;50.058;8.306;2023-03-31T00:38:32;9.60;99.90
15156;DHT22;7678;50.058;8.306;2023-03-31T00:41:02;9.70;99.90
15156;DHT22;7678;50.058;8.306;2023-03-31T00:43:35;9.60;99.90
15156;DHT22;7678;50.058;8.306;2023-03-31T00:46:12;9.60;99.90
15156;DHT22;7678;50.058;8.306;2023-03-31T00:48:47;9.60;99.90
15156;DHT22;7678;50.058;8.306;2023-03-31T00:51:18;9.60;99.90
15156;DHT22;7678;50.058;8.306;2023-03-31T00:53:51;9.60;99.90
15156;DHT22;7678;50.058;8.306;2023-03-31T00:56:21;9.60;99.90
15156;DHT22;7678;50.058;8.306;2023-03-31T00:58:51;9.60;99.90
15156;DHT22;7678;50.058;8.306;2023-03-31T01:01:23;9.50;99.90
15156;DHT22;7678;50.058;8.306;2023-03-31T01:03:52;9.50;99.90
15156;DHT22;7678;50.058;8.306;2023-03-31T01:06:21;9.60;99.90
15156;DHT22;7678;50.058;8.306;2023-03-31T01:08:50;9.50;99.90
15156;DHT22;7678;50.058;8.306;2023-03-31T01:11:21;9.50;99.90
15156;DHT22;7678;50.058;8.306;2023-03-31T01:13:52;9.40;99.90
15156;DHT22;7678;50.058;8.306;2023-03-31T01:16:22;9.40;99.90
15156;DHT22;7678;50.058;8.306;2023-03-31T01:18:50;9.50;99.90
15156;DHT22;7678;50.058;8.306;2023-03-31T01:21:45;9.40;99.90
15156;DHT22;7678;50.058;8.306;2023-03-31T01:27:52;9.40;99.90
15156;DHT22;7678;50.058;8.306;2023-03-31T01:30:55;9.30;99.90
15156;DHT22;7678;50.058;8.306;2023-03-31T01:42:52;9.20;99.90
15156;DHT22;7678;50.058;8.306;2023-03-31T01:45:31;9.20;99.90
15156;DHT22;7678;50.058;8.306;2023-03-31T01:48:07;9.10;99.90
15156;DHT22;7678;50.058;8.306;2023-03-31T01:50:44;9.10;99.90
15156;DHT22;7678;50.058;8.306;2023-03-31T01:53:17;9.10;99.90
15156;DHT22;7678;50.058;8.306;2023-03-31T01:55:57;9.00;99.90
15156;DHT22;7678;50.058;8.306;2023-03-31T01:58:30;9.10;99.90
15156;DHT22;7678;50.058;8.306;2023-03-31T02:00:59;9.10;99.90
15156;DHT22;7678;50.058;8.306;2023-03-31T02:03:32;9.00;99.90
15156;DHT22;7678;50.058;8.306;2023-03-31T02:06:07;9.00;99.90
15156;DHT22;7678;50.058;8.306;2023-03-31T02:08:39;8.90;99.90
15156;DHT22;7678;50.058;8.306;2023-03-31T02:11:08;8.90;99.90
15156;DHT22;7678;50.058;8.306;2023-03-31T02:13:39;8.90;99.90
15156;DHT22;7678;50.058;8.306;2023-03-31T02:16:14;8.90;99.90
15156;DHT22;7678;50.058;8.306;2023-03-31T02:18:46;8.90;99.90
15156;DHT22;7678;50.058;8.306;2023-03-31T02:21:16;8.90;99.90
15156;DHT22;7678;50.058;8.306;2023-03-31T02:23:44;8.90;99.90
15156;DHT22;7678;50.058;8.306;2023-03-31T02:26:16;8.90;99.90
15156;DHT22;7678;50.058;8.306;2023-03-31T02:28:45;9.00;99.90
15156;DHT22;7678;50.058;8.306;2023-03-31T02:31:25;8.90;99.90
15156;DHT22;7678;50.058;8.306;2023-03-31T02:33:54;8.90;99.90
15156;DHT22;7678;50.058;8.306;2023-03-31T02:36:23;9.00;99.90
15156;DHT22;7678;50.058;8.306;2023-03-31T02:38:53;9.00;99.90
15156;DHT22;7678;50.058;8.306;2023-03-31T02:41:23;9.00;99.90
15156;DHT22;7678;50.058;8.306;2023-03-31T02:43:51;9.00;99.90
15156;DHT22;7678;50.058;8.306;2023-03-31T02:46:21;9.00;99.90
15156;DHT22;7678;50.058;8.306;2023-03-31T02:48:52;9.00;99.90
15156;DHT22;7678;50.058;8.306;2023-03-31T02:51:42;8.90;99.90
15156;DHT22;7678;50.058;8.306;2023-03-31T02:54:47;8.90;99.90
15156;DHT22;7678;50.058;8.306;2023-03-31T03:00:29;9.00;99.90
15156;DHT22;7678;50.058;8.306;2023-03-31T03:03:12;8.90;99.90
15156;DHT22;7678;50.058;8.306;2023-03-31T03:05:49;8.90;99.90
15156;DHT22;7678;50.058;8.306;2023-03-31T03:08:31;8.90;99.90
15156;DHT22;7678;50.058;8.306;2023-03-31T03:11:09;8.90;99.90
15156;DHT22;7678;50.058;8.306;2023-03-31T03:13:46;8.90;99.90
15156;DHT22;7678;50.058;8.306;2023-03-31T03:16:20;8.90;99.90
15156;DHT22;7678;50.058;8.306;2023-03-31T03:18:59;8.90;99.90
15156;DHT22;7678;50.058;8.306;2023-03-31T03:21:28;8.90;99.90
15156;DHT22;7678;50.058;8.306;2023-03-31T03:23:57;8.90;99.90
15156;DHT22;7678;50.058;8.306;2023-03-31T03:26:26;8.90;99.90
15156;DHT22;7678;50.058;8.306;2023-03-31T03:28:55;8.90;99.90
15156;DHT22;7678;50.058;8.306;2023-03-31T03:31:23;8.90;99.90
15156;DHT22;7678;50.058;8.306;2023-03-31T03:33:52;8.90;99.90
15156;DHT22;7678;50.058;8.306;2023-03-31T03:36:23;8.90;99.90
15156;DHT22;7678;50.058;8.306;2023-03-31T03:38:51;8.90;99.90
15156;DHT22;7678;50.058;8.306;2023-03-31T03:41:19;8.90;99.90
15156;DHT22;7678;50.058;8.306;2023-03-31T03:43:47;8.90;99.90
15156;DHT22;7678;50.058;8.306;2023-03-31T03:46:15;8.90;99.90
15156;DHT22;7678;50.058;8.306;2023-03-31T03:48:43;8.90;99.90
15156;DHT22;7678;50.058;8.306;2023-03-31T03:51:12;8.90;99.90
15156;DHT22;7678;50.058;8.306;2023-03-31T03:53:41;8.90;99.90
15156;DHT22;7678;50.058;8.306;2023-03-31T03:56:10;8.90;99.90
15156;DHT22;7678;50.058;8.306;2023-03-31T03:58:38;8.80;99.90
15156;DHT22;7678;50.058;8.306;2023-03-31T04:01:06;8.80;99.90
15156;DHT22;7678;50.058;8.306;2023-03-31T04:03:34;8.80;99.90
15156;DHT22;7678;50.058;8.306;2023-03-31T04:06:02;8.90;99.90
15156;DHT22;7678;50.058;8.306;2023-03-31T04:08:31;8.80;99.90
15156;DHT22;7678;50.058;8.306;2023-03-31T04:11:01;8.80;99.90
15156;DHT22;7678;50.058;8.306;2023-03-31T04:13:29;8.80;99.90
15156;DHT22;7678;50.058;8.306;2023-03-31T04:15:57;8.80;99.90
15156;DHT22;7678;50.058;8.306;2023-03-31T04:18:25;8.80;99.90
15156;DHT22;7678;50.058;8.306;2023-03-31T04:20:53;8.80;99.90
15156;DHT22;7678;50.058;8.306;2023-03-31T04:23:30;8.80;99.90
15156;DHT22;7678;50.058;8.306;2023-03-31T04:25:58;8.80;99.90
15156;DHT22;7678;50.058;8.306;2023-03-31T04:28:27;8.90;99.90
15156;DHT22;7678;50.058;8.306;2023-03-31T04:31:01;8.80;99.90
15156;DHT22;7678;50.058;8.306;2023-03-31T04:33:29;8.80;99.90
15156;DHT22;7678;50.058;8.306;2023-03-31T04:35:59;8.80;99.90
15156;DHT22;7678;50.058;8.306;2023-03-31T04:38:33;8.80;99.90
15156;DHT22;7678;50.058;8.306;2023-03-31T04:41:01;8.80;99.90
15156;DHT22;7678;50.058;8.306;2023-03-31T04:43:31;8.80;99.90
15156;DHT22;7678;50.058;8.306;2023-03-31T04:45:59;8.80;99.90
15156;DHT22;7678;50.058;8.306;2023-03-31T04:48:27;8.80;99.90
15156;DHT22;7678;50.058;8.306;2023-03-31T04:50:55;8.80;99.90
15156;DHT22;7678;50.058;8.306;2023-03-31T04:53:24;8.90;99.90
15156;DHT22;7678;50.058;8.306;2023-03-31T04:55:52;8.90;99.90
15156;DHT22;7678;50.058;8.306;2023-03-31T04:58:21;9.00;99.90
15156;DHT22;7678;50.058;8.306;2023-03-31T05:00:50;9.00;99.90
15156;DHT22;7678;50.058;8.306;2023-03-31T05:03:19;9.00;99.90
15156;DHT22;7678;50.058;8.306;2023-03-31T05:05:48;9.00;99.90
15156;DHT22;7678;50.058;8.306;2023-03-31T05:08:17;9.00;99.90
15156;DHT22;7678;50.058;8.306;2023-03-31T05:10:45;9.10;99.90
15156;DHT22;7678;50.058;8.306;2023-03-31T05:13:16;9.10;99.90
15156;DHT22;7678;50.058;8.306;2023-03-31T05:15:45;9.10;99.90
15156;DHT22;7678;50.058;8.306;2023-03-31T05:18:19;9.10;99.90
15156;DHT22;7678;50.058;8.306;2023-03-31T05:20:47;9.20;99.90
15156;DHT22;7678;50.058;8.306;2023-03-31T05:23:16;9.10;99.90
15156;DHT22;7678;50.058;8.306;2023-03-31T05:25:44;9.10;99.90
15156;DHT22;7678;50.058;8.306;2023-03-31T05:28:14;9.10;99.90
15156;DHT22;7678;50.058;8.306;2023-03-31T05:30:42;9.10;99.90
15156;DHT22;7678;50.058;8.306;2023-03-31T05:33:10;9.10;99.90
15156;DHT22;7678;50.058;8.306;2023-03-31T05:35:40;9.20;99.90
15156;DHT22;7678;50.058;8.306;2023-03-31T05:38:08;9.20;99.90
15156;DHT22;7678;50.058;8.306;2023-03-31T05:40:36;9.10;99.90
15156;DHT22;7678;50.058;8.306;2023-03-31T05:43:06;9.10;99.90
15156;DHT22;7678;50.058;8.306;2023-03-31T05:45:34;9.10;99.90
15156;DHT22;7678;50.058;8.306;2023-03-31T05:48:02;9.10;99.90
15156;DHT22;7678;50.058;8.306;2023-03-31T05:50:31;9.10;99.90
15156;DHT22;7678;50.058;8.306;2023-03-31T05:53:00;9.00;99.90
15156;DHT22;7678;50.058;8.306;2023-03-31T05:55:28;9.00;99.90
15156;DHT22;7678;50.058;8.306;2023-03-31T05:57:59;9.00;99.90
15156;DHT22;7678;50.058;8.306;2023-03-31T06:00:27;9.00;99.90
15156;DHT22;7678;50.058;8.306;2023-03-31T06:02:55;9.00;99.90
15156;DHT22;7678;50.058;8.306;2023-03-31T06:05:25;9.00;99.90
15156;DHT22;7678;50.058;8.306;2023-03-31T06:07:53;9.00;99.90
15156;DHT22;7678;50.058;8.306;2023-03-31T06:10:23;9.00;99.90
15156;DHT22;7678;50.058;8.306;2023-03-31T06:12:51;9.00;99.90
15156;DHT22;7678;50.058;8.306;2023-03-31T06:15:19;9.00;99.90
15156;DHT22;7678;50.058;8.306;2023-03-31T06:17:47;9.00;99.90
15156;DHT22;7678;50.058;8.306;2023-03-31T06:20:15;9.00;99.90
15156;DHT22;7678;50.058;8.306;2023-03-31T06:22:53;9.00;99.90
15156;DHT22;7678;50.058;8.306;2023-03-31T06:25:23;9.00;99.90
15156;DHT22;7678;50.058;8.306;2023-03-31T06:27:51;9.00;99.90
15156;DHT22;7678;50.058;8.306;2023-03-31T06:30:19;9.00;99.90
15156;DHT22;7678;50.058;8.306;2023-03-31T06:32:48;9.00;99.90
15156;DHT22;7678;50.058;8.306;2023-03-31T06:35:16;9.00;99.90
15156;DHT22;7678;50.058;8.306;2023-03-31T06:37:47;9.00;99.90
15156;DHT22;7678;50.058;8.306;2023-03-31T06:40:15;9.10;99.90
15156;DHT22;7678;50.058;8.306;2023-03-31T06:42:45;9.10;99.90
15156;DHT22;7678;50.058;8.306;2023-03-31T06:45:13;9.10;99.90
15156;DHT22;7678;50.058;8.306;2023-03-31T06:47:41;9.10;99.90
15156;DHT22;7678;50.058;8.306;2023-03-31T06:50:09;9.10;99.90
15156;DHT22;7678;50.058;8.306;2023-03-31T06:52:37;9.10;99.90
15156;DHT22;7678;50.058;8.306;2023-03-31T06:55:07;9.10;99.90
15156;DHT22;7678;50.058;8.306;2023-03-31T06:57:36;9.10;99.90
15156;DHT22;7678;50.058;8.306;2023-03-31T07:00:07;9.10;99.90
15156;DHT22;7678;50.058;8.306;2023-03-31T07:02:36;9.10;99.90
15156;DHT22;7678;50.058;8.306;2023-03-31T07:05:05;9.20;99.90
15156;DHT22;7678;50.058;8.306;2023-03-31T07:07:33;9.20;99.90
15156;DHT22;7678;50.058;8.306;2023-03-31T07:10:02;9.20;99.90
15156;DHT22;7678;50.058;8.306;2023-03-31T07:12:31;9.20;99.90
15156;DHT22;7678;50.058;8.306;2023-03-31T07:15:00;9.20;99.90
15156;DHT22;7678;50.058;8.306;2023-03-31T07:17:30;9.10;99.90
15156;DHT22;7678;50.058;8.306;2023-03-31T07:19:58;9.10;99.90
15156;DHT22;7678;50.058;8.306;2023-03-31T07:22:28;9.20;99.90
15156;DHT22;7678;50.058;8.306;2023-03-31T07:24:56;9.20;99.90
15156;DHT22;7678;50.058;8.306;2023-03-31T07:27:27;9.20;99.90
15156;DHT22;7678;50.058;8.306;2023-03-31T07:29:56;9.20;99.90
15156;DHT22;7678;50.058;8.306;2023-03-31T07:32:24;9.30;99.90
15156;DHT22;7678;50.058;8.306;2023-03-31T07:34:57;9.30;99.90
15156;DHT22;7678;50.058;8.306;2023-03-31T07:37:25;9.40;99.90
15156;DHT22;7678;50.058;8.306;2023-03-31T07:39:59;9.50;99.90
15156;DHT22;7678;50.058;8.306;2023-03-31T07:42:27;9.50;99.90
15156;DHT22;7678;50.058;8.306;2023-03-31T07:44:56;9.50;99.90
15156;DHT22;7678;50.058;8.306;2023-03-31T07:47:25;9.70;99.90
15156;DHT22;7678;50.058;8.306;2023-03-31T07:49:59;10.10;99.90
15156;DHT22;7678;50.058;8.306;2023-03-31T07:52:27;10.30;99.90
15156;DHT22;7678;50.058;8.306;2023-03-31T07:54:56;10.40;99.90
15156;DHT22;7678;50.058;8.306;2023-03-31T07:57:25;10.40;99.90
15156;DHT22;7678;50.058;8.306;2023-03-31T07:59:55;10.30;99.90
15156;DHT22;7678;50.058;8.306;2023-03-31T08:02:24;10.30;99.90
15156;DHT22;7678;50.058;8.306;2023-03-31T08:04:54;10.20;99.90
15156;DHT22;7678;50.058;8.306;2023-03-31T08:07:25;10.20;99.90
15156;DHT22;7678;50.058;8.306;2023-03-31T08:09:57;10.20;99.90
15156;DHT22;7678;50.058;8.306;2023-03-31T08:12:25;10.20;99.90
15156;DHT22;7678;50.058;8.306;2023-03-31T08:14:53;10.40;99.90
15156;DHT22;7678;50.058;8.306;2023-03-31T08:17:22;10.90;99.90
15156;DHT22;7678;50.058;8.306;2023-03-31T08:19:51;11.10;99.90
15156;DHT22;7678;50.058;8.306;2023-03-31T08:22:19;11.00;99.90
15156;DHT22;7678;50.058;8.306;2023-03-31T08:24:53;11.00;99.90
15156;DHT22;7678;50.058;8.306;2023-03-31T08:27:21;11.00;99.90
15156;DHT22;7678;50.058;8.306;2023-03-31T08:29:50;10.90;99.90
15156;DHT22;7678;50.058;8.306;2023-03-31T08:32:21;10.80;99.90
15156;DHT22;7678;50.058;8.306;2023-03-31T08:34:50;10.70;99.90
15156;DHT22;7678;50.058;8.306;2023-03-31T08:37:18;10.70;99.90
15156;DHT22;7678;50.058;8.306;2023-03-31T08:39:47;10.70;99.90
15156;DHT22;7678;50.058;8.306;2023-03-31T08:42:19;10.60;99.90
15156;DHT22;7678;50.058;8.306;2023-03-31T08:44:56;10.50;99.90
15156;DHT22;7678;50.058;8.306;2023-03-31T08:47:30;10.40;99.90
15156;DHT22;7678;50.058;8.306;2023-03-31T08:50:02;10.50;99.90
15156;DHT22;7678;50.058;8.306;2023-03-31T08:52:35;10.70;99.90
15156;DHT22;7678;50.058;8.306;2023-03-31T08:55:06;10.90;99.90
15156;DHT22;7678;50.058;8.306;2023-03-31T08:57:46;11.10;99.90
15156;DHT22;7678;50.058;8.306;2023-03-31T09:00:18;11.60;99.90
15156;DHT22;7678;50.058;8.306;2023-03-31T09:02:51;12.00;99.90
15156;DHT22;7678;50.058;8.306;2023-03-31T09:05:34;12.20;99.90
15156;DHT22;7678;50.058;8.306;2023-03-31T09:08:31;12.00;99.90
15156;DHT22;7678;50.058;8.306;2023-03-31T09:11:07;11.70;99.90
15156;DHT22;7678;50.058;8.306;2023-03-31T09:14:03;11.70;99.90
15156;DHT22;7678;50.058;8.306;2023-03-31T09:16:38;11.60;99.90
15156;DHT22;7678;50.058;8.306;2023-03-31T09:19:14;11.70;99.90
15156;DHT22;7678;50.058;8.306;2023-03-31T09:21:45;11.80;99.90
15156;DHT22;7678;50.058;8.306;2023-03-31T09:24:19;12.00;99.90
15156;DHT22;7678;50.058;8.306;2023-03-31T09:26:52;12.00;99.90
15156;DHT22;7678;50.058;8.306;2023-03-31T09:29:28;12.10;99.90
15156;DHT22;7678;50.058;8.306;2023-03-31T09:32:00;12.00;99.90
15156;DHT22;7678;50.058;8.306;2023-03-31T09:34:32;11.90;99.90
15156;DHT22;7678;50.058;8.306;2023-03-31T09:37:02;12.40;99.90
15156;DHT22;7678;50.058;8.306;2023-03-31T09:39:42;12.60;99.90
15156;DHT22;7678;50.058;8.306;2023-03-31T09:42:13;12.80;99.90
15156;DHT22;7678;50.058;8.306;2023-03-31T09:44:45;13.00;99.90
15156;DHT22;7678;50.058;8.306;2023-03-31T09:47:24;13.00;99.90
15156;DHT22;7678;50.058;8.306;2023-03-31T09:49:54;13.10;99.90
15156;DHT22;7678;50.058;8.306;2023-03-31T09:52:27;12.80;99.90
15156;DHT22;7678;50.058;8.306;2023-03-31T09:54:59;12.70;99.90
15156;DHT22;7678;50.058;8.306;2023-03-31T09:57:30;12.60;99.90
15156;DHT22;7678;50.058;8.306;2023-03-31T10:00:13;12.70;99.90
15156;DHT22;7678;50.058;8.306;2023-03-31T10:02:43;13.00;99.90
15156;DHT22;7678;50.058;8.306;2023-03-31T10:05:25;13.10;99.90
15156;DHT22;7678;50.058;8.306;2023-03-31T10:08:19;13.00;99.90
15156;DHT22;7678;50.058;8.306;2023-03-31T10:10:49;12.50;99.90
15156;DHT22;7678;50.058;8.306;2023-03-31T10:13:19;12.30;99.90
15156;DHT22;7678;50.058;8.306;2023-03-31T10:15:53;11.90;99.90
15156;DHT22;7678;50.058;8.306;2023-03-31T10:18:32;11.30;99.90
15156;DHT22;7678;50.058;8.306;2023-03-31T10:21:02;10.80;99.90
15156;DHT22;7678;50.058;8.306;2023-03-31T10:23:32;10.60;99.90
15156;DHT22;7678;50.058;8.306;2023-03-31T10:26:01;10.50;99.90
15156;DHT22;7678;50.058;8.306;2023-03-31T10:28:32;10.30;99.90
15156;DHT22;7678;50.058;8.306;2023-03-31T10:31:02;10.10;99.90
15156;DHT22;7678;50.058;8.306;2023-03-31T10:33:33;10.00;99.90
15156;DHT22;7678;50.058;8.306;2023-03-31T10:36:07;10.10;99.90
15156;DHT22;7678;50.058;8.306;2023-03-31T10:38:43;10.00;99.90
15156;DHT22;7678;50.058;8.306;2023-03-31T10:41:17;10.00;99.90
15156;DHT22;7678;50.058;8.306;2023-03-31T10:43:49;10.10;99.90
15156;DHT22;7678;50.058;8.306;2023-03-31T10:46:19;10.30;99.90
15156;DHT22;7678;50.058;8.306;2023-03-31T10:48:50;10.50;99.90
15156;DHT22;7678;50.058;8.306;2023-03-31T10:51:26;10.70;99.90
15156;DHT22;7678;50.058;8.306;2023-03-31T10:54:00;10.80;99.90
15156;DHT22;7678;50.058;8.306;2023-03-31T10:56:35;11.10;99.90
15156;DHT22;7678;50.058;8.306;2023-03-31T10:59:30;11.20;99.90
15156;DHT22;7678;50.058;8.306;2023-03-31T11:02:17;11.30;99.90
15156;DHT22;7678;50.058;8.306;2023-03-31T11:04:55;11.60;99.90
15156;DHT22;7678;50.058;8.306;2023-03-31T11:07:42;12.00;99.90
15156;DHT22;7678;50.058;8.306;2023-03-31T11:10:23;12.40;99.90
15156;DHT22;7678;50.058;8.306;2023-03-31T11:12:58;12.80;99.90
15156;DHT22;7678;50.058;8.306;2023-03-31T11:15:33;13.20;99.90
15156;DHT22;7678;50.058;8.306;2023-03-31T11:21:13;13.60;99.90
15156;DHT22;7678;50.058;8.306;2023-03-31T11:23:52;13.50;99.90
15156;DHT22;7678;50.058;8.306;2023-03-31T11:26:31;13.40;99.90
15156;DHT22;7678;50.058;8.306;2023-03-31T11:29:14;13.10;99.90
15156;DHT22;7678;50.058;8.306;2023-03-31T11:31:52;13.20;99.90
15156;DHT22;7678;50.058;8.306;2023-03-31T11:34:36;13.40;99.90
15156;DHT22;7678;50.058;8.306;2023-03-31T11:37:15;13.20;99.90
15156;DHT22;7678;50.058;8.306;2023-03-31T11:39:54;13.30;99.90
15156;DHT22;7678;50.058;8.306;2023-03-31T11:42:27;13.20;99.90
15156;DHT22;7678;50.058;8.306;2023-03-31T11:44:59;13.00;99.90
15156;DHT22;7678;50.058;8.306;2023-03-31T11:47:31;12.80;99.90
15156;DHT22;7678;50.058;8.306;2023-03-31T11:50:08;13.10;99.90
15156;DHT22;7678;50.058;8.306;2023-03-31T11:52:41;13.20;99.90
15156;DHT22;7678;50.058;8.306;2023-03-31T11:55:14;13.50;99.90
15156;DHT22;7678;50.058;8.306;2023-03-31T11:57:45;13.50;99.90
15156;DHT22;7678;50.058;8.306;2023-03-31T12:00:17;13.30;99.90
15156;DHT22;7678;50.058;8.306;2023-03-31T12:02:50;13.30;99.90
15156;DHT22;7678;50.058;8.306;2023-03-31T12:05:21;13.20;99.90
15156;DHT22;7678;50.058;8.306;2023-03-31T12:07:56;13.10;99.90
15156;DHT22;7678;50.058;8.306;2023-03-31T12:10:31;12.90;99.90
15156;DHT22;7678;50.058;8.306;2023-03-31T12:13:06;12.50;99.90
15156;DHT22;7678;50.058;8.306;2023-03-31T12:15:40;11.80;99.90
15156;DHT22;7678;50.058;8.306;2023-03-31T12:18:13;11.30;99.90
15156;DHT22;7678;50.058;8.306;2023-03-31T12:20:46;11.40;99.90
15156;DHT22;7678;50.058;8.306;2023-03-31T12:23:19;11.30;99.90
15156;DHT22;7678;50.058;8.306;2023-03-31T12:25:52;11.50;99.90
15156;DHT22;7678;50.058;8.306;2023-03-31T12:28:23;11.60;99.90
15156;DHT22;7678;50.058;8.306;2023-03-31T12:30:54;11.60;99.90
15156;DHT22;7678;50.058;8.306;2023-03-31T12:33:25;11.70;99.90
15156;DHT22;7678;50.058;8.306;2023-03-31T12:36:07;11.80;99.90
15156;DHT22;7678;50.058;8.306;2023-03-31T12:38:54;12.00;99.90
15156;DHT22;7678;50.058;8.306;2023-03-31T12:41:28;12.00;99.90
15156;DHT22;7678;50.058;8.306;2023-03-31T12:44:27;12.20;99.90
15156;DHT22;7678;50.058;8.306;2023-03-31T12:47:13;12.60;99.90
15156;DHT22;7678;50.058;8.306;2023-03-31T12:50:01;12.60;99.90
15156;DHT22;7678;50.058;8.306;2023-03-31T12:52:41;12.70;99.90
15156;DHT22;7678;50.058;8.306;2023-03-31T12:55:32;12.90;99.90
15156;DHT22;7678;50.058;8.306;2023-03-31T13:01:03;13.10;99.90
15156;DHT22;7678;50.058;8.306;2023-03-31T13:03:41;13.20;99.90
15156;DHT22;7678;50.058;8.306;2023-03-31T13:06:54;13.50;99.90
15156;DHT22;7678;50.058;8.306;2023-03-31T13:09:40;13.60;99.90
15156;DHT22;7678;50.058;8.306;2023-03-31T13:12:16;13.70;99.90
15156;DHT22;7678;50.058;8.306;2023-03-31T13:14:46;13.70;99.90
15156;DHT22;7678;50.058;8.306;2023-03-31T13:17:26;13.80;99.90
15156;DHT22;7678;50.058;8.306;2023-03-31T13:19:56;14.00;99.90
15156;DHT22;7678;50.058;8.306;2023-03-31T13:22:44;14.10;99.90
15156;DHT22;7678;50.058;8.306;2023-03-31T13:25:39;13.60;99.90
15156;DHT22;7678;50.058;8.306;2023-03-31T13:28:44;13.30;99.90
15156;DHT22;7678;50.058;8.306;2023-03-31T13:31:14;13.30;99.90
15156;DHT22;7678;50.058;8.306;2023-03-31T13:33:46;13.20;99.90
15156;DHT22;7678;50.058;8.306;2023-03-31T13:36:37;13.30;99.90
15156;DHT22;7678;50.058;8.306;2023-03-31T13:39:25;13.50;99.90
15156;DHT22;7678;50.058;8.306;2023-03-31T13:42:05;13.50;99.90
15156;DHT22;7678;50.058;8.306;2023-03-31T13:45:10;13.50;99.90
15156;DHT22;7678;50.058;8.306;2023-03-31T13:47:57;13.40;99.90
15156;DHT22;7678;50.058;8.306;2023-03-31T13:50:55;13.10;99.90
15156;DHT22;7678;50.058;8.306;2023-03-31T13:53:41;13.30;99.90
15156;DHT22;7678;50.058;8.306;2023-03-31T13:56:31;13.30;99.90
15156;DHT22;7678;50.058;8.306;2023-03-31T13:59:13;13.50;99.90
15156;DHT22;7678;50.058;8.306;2023-03-31T14:02:10;13.70;99.90
15156;DHT22;7678;50.058;8.306;2023-03-31T14:05:06;13.90;99.90
15156;DHT22;7678;50.058;8.306;2023-03-31T14:07:43;14.40;99.90
15156;DHT22;7678;50.058;8.306;2023-03-31T14:10:25;14.80;99.90
15156;DHT22;7678;50.058;8.306;2023-03-31T14:13:06;14.50;99.90
15156;DHT22;7678;50.058;8.306;2023-03-31T14:15:37;14.60;99.90
15156;DHT22;7678;50.058;8.306;2023-03-31T14:18:10;14.40;99.90
15156;DHT22;7678;50.058;8.306;2023-03-31T14:20:51;14.40;99.90
15156;DHT22;7678;50.058;8.306;2023-03-31T14:23:31;14.50;99.90
15156;DHT22;7678;50.058;8.306;2023-03-31T14:26:05;14.20;99.90
15156;DHT22;7678;50.058;8.306;2023-03-31T14:28:55;14.20;99.90
15156;DHT22;7678;50.058;8.306;2023-03-31T14:31:27;14.10;99.90
15156;DHT22;7678;50.058;8.306;2023-03-31T14:34:20;14.20;99.90
15156;DHT22;7678;50.058;8.306;2023-03-31T14:36:57;14.30;99.90
15156;DHT22;7678;50.058;8.306;2023-03-31T14:39:28;14.30;99.90
15156;DHT22;7678;50.058;8.306;2023-03-31T14:42:00;14.30;99.90
15156;DHT22;7678;50.058;8.306;2023-03-31T14:44:29;14.40;99.90
15156;DHT22;7678;50.058;8.306;2023-03-31T14:46:57;14.30;99.90
15156;DHT22;7678;50.058;8.306;2023-03-31T14:49:28;14.20;99.90
15156;DHT22;7678;50.058;8.306;2023-03-31T14:52:13;13.80;99.90
15156;DHT22;7678;50.058;8.306;2023-03-31T14:54:43;13.40;99.90
15156;DHT22;7678;50.058;8.306;2023-03-31T14:57:17;12.50;99.90
15156;DHT22;7678;50.058;8.306;2023-03-31T14:59:47;12.00;99.90
15156;DHT22;7678;50.058;8.306;2023-03-31T15:02:24;11.70;99.90
15156;DHT22;7678;50.058;8.306;2023-03-31T15:04:58;11.80;99.90
15156;DHT22;7678;50.058;8.306;2023-03-31T15:07:28;11.80;99.90
15156;DHT22;7678;50.058;8.306;2023-03-31T15:09:57;11.80;99.90
15156;DHT22;7678;50.058;8.306;2023-03-31T15:12:27;11.70;99.90
15156;DHT22;7678;50.058;8.306;2023-03-31T15:15:00;11.80;99.90
15156;DHT22;7678;50.058;8.306;2023-03-31T15:17:35;11.90;99.90
15156;DHT22;7678;50.058;8.306;2023-03-31T15:20:25;11.90;99.90
15156;DHT22;7678;50.058;8.306;2023-03-31T15:22:54;12.10;99.90
15156;DHT22;7678;50.058;8.306;2023-03-31T15:25:25;12.30;99.90
15156;DHT22;7678;50.058;8.306;2023-03-31T15:27:57;12.50;99.90
15156;DHT22;7678;50.058;8.306;2023-03-31T15:30:28;12.50;99.90
15156;DHT22;7678;50.058;8.306;2023-03-31T15:32:57;12.70;99.90
15156;DHT22;7678;50.058;8.306;2023-03-31T15:35:45;12.70;99.90
15156;DHT22;7678;50.058;8.306;2023-03-31T15:38:14;12.60;99.90
15156;DHT22;7678;50.058;8.306;2023-03-31T15:40:48;12.50;99.90
15156;DHT22;7678;50.058;8.306;2023-03-31T15:43:27;12.60;99.90
15156;DHT22;7678;50.058;8.306;2023-03-31T15:45:57;12.60;99.90
15156;DHT22;7678;50.058;8.306;2023-03-31T15:48:28;12.60;99.90
15156;DHT22;7678;50.058;8.306;2023-03-31T15:51:04;12.50;99.90
15156;DHT22;7678;50.058;8.306;2023-03-31T15:53:37;12.40;99.90
15156;DHT22;7678;50.058;8.306;2023-03-31T15:56:24;12.20;99.90
15156;DHT22;7678;50.058;8.306;2023-03-31T15:59:00;12.20;99.90
15156;DHT22;7678;50.058;8.306;2023-03-31T16:01:31;12.10;99.90
15156;DHT22;7678;50.058;8.306;2023-03-31T16:04:01;12.10;99.90
15156;DHT22;7678;50.058;8.306;2023-03-31T16:06:40;12.10;99.90
15156;DHT22;7678;50.058;8.306;2023-03-31T16:09:11;12.00;99.90
15156;DHT22;7678;50.058;8.306;2023-03-31T16:11:43;11.90;99.90
15156;DHT22;7678;50.058;8.306;2023-03-31T16:14:15;11.90;99.90
15156;DHT22;7678;50.058;8.306;2023-03-31T16:16:48;11.70;99.90
15156;DHT22;7678;50.058;8.306;2023-03-31T16:19:17;11.70;99.90
15156;DHT22;7678;50.058;8.306;2023-03-31T16:21:50;11.50;99.90
15156;DHT22;7678;50.058;8.306;2023-03-31T16:24:26;11.50;99.90
15156;DHT22;7678;50.058;8.306;2023-03-31T16:26:57;11.50;99.90
15156;DHT22;7678;50.058;8.306;2023-03-31T16:29:27;11.30;99.90
15156;DHT22;7678;50.058;8.306;2023-03-31T16:32:08;11.40;99.90
15156;DHT22;7678;50.058;8.306;2023-03-31T16:34:54;11.60;99.90
15156;DHT22;7678;50.058;8.306;2023-03-31T16:37:24;11.60;99.90
15156;DHT22;7678;50.058;8.306;2023-03-31T16:39:52;11.70;99.90
15156;DHT22;7678;50.058;8.306;2023-03-31T16:42:39;11.70;99.90
15156;DHT22;7678;50.058;8.306;2023-03-31T16:45:07;11.70;99.90
15156;DHT22;7678;50.058;8.306;2023-03-31T16:47:40;11.70;99.90
15156;DHT22;7678;50.058;8.306;2023-03-31T16:50:11;11.80;99.90
15156;DHT22;7678;50.058;8.306;2023-03-31T16:52:42;11.80;99.90
15156;DHT22;7678;50.058;8.306;2023-03-31T16:55:11;11.70;99.90